Detalii statie Lilieci, IL [00001199]

Toti senzorii

Date Temperatura solului [C]Precipitatii [mm]Voltaj baterie [mV]Leaf Wetness [Min]HC Air temperature [C]HC Relative humidity [%]Punctul de roua [C]
medieminmaxsumaultimatimpmedieminmaxmediemediemin
2020-06-02 08:00:00 13.9 13.5 14.4 0 6610 0 11.03 10.23 11.79 99.51 10.8 9.8
2020-06-02 10:00:00 13.4 13.2 13.6 0.8 6854 0 9.88 9.16 10.55 99.51 9.7 9.1
2020-06-02 12:00:00 13.7 13.1 14.4 2 6884 115 9.85 9.09 10.68 99.97 9.7 9
2020-06-02 14:00:00 14.8 14.3 15.3 0.8 6884 120 10.7 10.42 11.07 99.97 10.6 10.2
2020-06-02 16:00:00 19.1 15.5 22.3 0.2 6884 5 13.21 10.96 15.29 86.97 10.8 9.7
2020-06-02 18:00:00 21.9 20.8 22.8 0 6884 0 15.12 14.13 15.88 68.86 9.3 8.4
2020-06-02 20:00:00 19.2 18 20.5 0 6874 0 14.97 13.21 15.73 70.47 9.4 8.2
2020-06-02 22:00:00 16.4 15.3 17.7 0 6660 0 11.48 10.38 12.99 93.21 10.2 9.2
2020-06-03 00:00:00 14.7 13.9 15.4 0 6582 0 10.2 9.39 10.81 100 10.1 9.3
2020-06-03 02:00:00 13.1 12.3 14 0 6552 0 8.68 7.47 9.51 100 8.6 7.4
2020-06-03 04:00:00 11.6 11.2 12.2 0 6512 0 6.59 6.06 7.27 100 6.5 6
2020-06-03 06:00:00 10.5 10.2 11.2 0 6522 0 6.39 6.06 6.65 100 6.3 6
2020-06-03 08:00:00 10.4 10.1 11.1 0 6884 0 8.75 6.84 11.43 98.94 8.5 6.8
2020-06-03 10:00:00 12.6 11.3 14.3 0 6884 0 14.25 11.47 16.76 76.14 9.8 8.3
2020-06-03 12:00:00 16.6 14.5 19.9 0 6884 0 18.54 16.65 20.22 49.16 7.4 6
2020-06-03 14:00:00 20.8 19.5 22 0 6884 0 19.68 18.31 21.61 42.88 6.5 5.5
2020-06-03 16:00:00 22.6 20.3 25 0 6884 0 20.77 19.4 21.96 39.75 6.3 4.6
2020-06-03 18:00:00 25.7 24.5 26.6 0 6864 0 21.94 20.6 22.64 34.74 5.4 4.5
2020-06-03 20:00:00 23.3 21.1 25.5 0 6864 0 20.33 18.67 21.54 42.08 6.7 6
2020-06-03 22:00:00 19.1 17.6 21 0 6630 0 15.43 12.84 18.5 70.22 9.7 9
2020-06-04 00:00:00 16.3 15.4 17.6 0 6572 0 11.92 10.79 12.8 87.45 9.7 9.1
2020-06-04 02:00:00 14.8 14.1 15.4 0 6532 0 10.78 10.43 11.09 97.26 10.2 9.8
2020-06-04 04:00:00 13.5 13.1 14.1 0 6494 0 10.16 9.6 10.48 100 10.1 9.6
2020-06-04 06:00:00 12.5 12.1 13 0 6522 0 8.43 7.99 9.44 100 8.3 7.9